createdAt,value
2019-03-12T00:00:34.511Z,3.31
2019-03-12T00:03:05.797Z,3.29
2019-03-12T00:05:36.811Z,3.32
2019-03-12T00:08:08.853Z,3.25
2019-03-12T00:10:40.021Z,3.26
2019-03-12T00:13:10.907Z,3.25
2019-03-12T00:15:41.963Z,3.20
2019-03-12T00:18:12.926Z,3.27
2019-03-12T00:20:44.083Z,3.22
2019-03-12T00:23:15.142Z,3.13
2019-03-12T00:25:46.117Z,3.19
2019-03-12T00:28:17.096Z,3.09
2019-03-12T00:30:48.131Z,3.12
2019-03-12T00:33:19.307Z,3.18
2019-03-12T00:35:52.805Z,3.07
2019-03-12T00:38:23.786Z,3.11
2019-03-12T00:40:54.984Z,3.10
2019-03-12T00:43:27.512Z,3.03
2019-03-12T00:45:58.799Z,3.05
2019-03-12T00:48:31.504Z,3.02
2019-03-12T00:51:02.676Z,2.99
2019-03-12T00:53:34.788Z,3.08
2019-03-12T00:56:06.007Z,3.13
2019-03-12T00:58:36.969Z,3.04
2019-03-12T01:01:08.164Z,2.98
2019-03-12T01:03:39.176Z,2.89
2019-03-12T01:06:10.201Z,2.81
2019-03-12T01:08:41.104Z,2.84
2019-03-12T01:11:13.812Z,2.92
2019-03-12T01:13:45.671Z,2.84
2019-03-12T01:16:16.738Z,2.87
2019-03-12T01:18:47.603Z,2.89
2019-03-12T01:21:18.630Z,2.88
2019-03-12T01:23:49.771Z,2.83
2019-03-12T01:26:22.766Z,2.76
2019-03-12T01:28:53.820Z,2.71
2019-03-12T01:31:25.047Z,2.67
2019-03-12T01:33:56.207Z,2.74
2019-03-12T01:36:27.199Z,2.72
2019-03-12T01:38:58.184Z,2.75
2019-03-12T01:41:29.115Z,2.67
2019-03-12T01:44:00.169Z,2.69
2019-03-12T01:46:32.313Z,2.59
2019-03-12T01:49:03.335Z,2.69
2019-03-12T01:51:34.401Z,2.71
2019-03-12T01:54:05.353Z,2.64
2019-03-12T01:56:36.450Z,2.53
2019-03-12T01:59:07.338Z,2.65
2019-03-12T02:01:38.399Z,2.65
2019-03-12T02:04:09.440Z,2.54
2019-03-12T02:06:41.439Z,2.61
2019-03-12T02:09:12.411Z,2.65
2019-03-12T02:11:43.509Z,2.64
2019-03-12T02:14:26.483Z,2.70
2019-03-12T02:16:57.440Z,2.64
2019-03-12T02:19:28.377Z,2.53
2019-03-12T02:21:59.557Z,2.63
2019-03-12T02:24:30.442Z,2.50
2019-03-12T02:27:01.470Z,2.53
2019-03-12T02:29:32.407Z,2.59
2019-03-12T02:32:04.572Z,2.75
2019-03-12T02:34:35.562Z,2.71
2019-03-12T02:37:08.079Z,2.71
2019-03-12T02:39:39.059Z,2.72
2019-03-12T02:42:12.669Z,2.82
2019-03-12T02:44:42.629Z,2.82
2019-03-12T02:47:13.603Z,2.75
2019-03-12T02:49:44.505Z,2.69
2019-03-12T02:52:15.409Z,2.68
2019-03-12T02:54:46.381Z,2.70
2019-03-12T02:57:17.611Z,2.62
2019-03-12T02:59:48.636Z,2.64
2019-03-12T03:02:19.566Z,2.78
2019-03-12T03:04:54.064Z,2.71
2019-03-12T03:07:24.886Z,2.72
2019-03-12T03:09:55.760Z,2.75
2019-03-12T03:12:26.780Z,2.79
2019-03-12T03:14:59.299Z,2.69
2019-03-12T03:17:30.404Z,2.78
2019-03-12T03:20:01.394Z,2.87
2019-03-12T03:22:33.521Z,2.76
2019-03-12T03:25:06.204Z,2.81
2019-03-12T03:27:37.243Z,2.85
2019-03-12T03:30:11.531Z,2.83
2019-03-12T03:32:43.609Z,2.79
2019-03-12T03:35:14.893Z,2.77
2019-03-12T03:37:45.981Z,2.82
2019-03-12T03:40:24.555Z,2.74
2019-03-12T03:42:55.714Z,2.77
2019-03-12T03:45:28.808Z,2.91
2019-03-12T03:48:00.011Z,2.90
2019-03-12T03:50:31.035Z,2.84
2019-03-12T03:53:03.661Z,2.91
2019-03-12T03:55:34.835Z,2.89
2019-03-12T03:58:07.111Z,2.91
2019-03-12T04:00:38.013Z,2.88
2019-03-12T04:03:11.108Z,2.92
2019-03-12T04:05:42.370Z,2.90
2019-03-12T04:08:13.660Z,2.96
2019-03-12T04:10:44.599Z,2.87
2019-03-12T04:13:15.555Z,2.89
2019-03-12T04:15:46.577Z,2.81
2019-03-12T04:18:17.616Z,2.87
2019-03-12T04:20:48.600Z,2.85
2019-03-12T04:23:19.774Z,2.88
2019-03-12T04:25:52.349Z,2.88
2019-03-12T04:28:23.398Z,2.87
2019-03-12T04:30:54.519Z,2.90
2019-03-12T04:33:54.707Z,2.94
2019-03-12T04:36:25.786Z,2.99
2019-03-12T04:38:56.839Z,3.08
2019-03-12T04:41:27.853Z,2.98
2019-03-12T04:43:58.869Z,3.04
2019-03-12T04:46:29.787Z,2.98
2019-03-12T04:49:01.795Z,3.04
2019-03-12T04:51:33.048Z,2.95
2019-03-12T04:54:03.973Z,3.02
2019-03-12T04:56:34.922Z,3.06
2019-03-12T04:59:05.926Z,2.99
2019-03-12T05:01:36.887Z,2.98
2019-03-12T05:04:07.903Z,3.06
2019-03-12T05:06:41.980Z,3.14
2019-03-12T05:09:12.961Z,3.12
2019-03-12T05:11:43.995Z,3.07
2019-03-12T05:14:24.410Z,3.06
2019-03-12T05:16:58.355Z,2.90
2019-03-12T05:19:32.907Z,2.83
2019-03-12T05:22:04.002Z,2.80
2019-03-12T05:24:35.053Z,2.68
2019-03-12T05:27:06.138Z,2.64
2019-03-12T05:29:37.338Z,2.54
2019-03-12T05:32:08.321Z,2.34
2019-03-12T05:34:39.340Z,2.37
2019-03-12T05:37:11.400Z,2.26
2019-03-12T05:39:42.324Z,2.30
2019-03-12T05:42:14.918Z,2.31
2019-03-12T05:44:45.969Z,2.58
2019-03-12T05:47:16.885Z,2.57
2019-03-12T05:49:47.869Z,2.42
2019-03-12T05:52:18.873Z,2.53
2019-03-12T05:54:50.295Z,2.49
2019-03-12T05:57:24.050Z,2.57
2019-03-12T05:59:55.140Z,2.76
2019-03-12T06:02:26.180Z,2.71
2019-03-12T06:04:57.372Z,2.77
2019-03-12T06:07:28.444Z,2.87
2019-03-12T06:09:59.645Z,3.05
2019-03-12T06:12:30.779Z,3.03
2019-03-12T06:15:01.906Z,3.12
2019-03-12T06:17:33.509Z,3.06
2019-03-12T06:20:07.650Z,3.13
2019-03-12T06:22:38.632Z,3.21
2019-03-12T06:25:09.626Z,3.38
2019-03-12T06:27:40.820Z,3.16
2019-03-12T06:30:16.593Z,3.07
2019-03-12T06:32:49.338Z,3.30
2019-03-12T06:35:26.352Z,3.42
2019-03-12T06:37:59.102Z,3.42
2019-03-12T06:40:47.010Z,3.40
2019-03-12T06:43:19.705Z,3.47
2019-03-12T06:45:52.434Z,3.56
2019-03-12T06:48:28.690Z,3.64
2019-03-12T06:51:04.226Z,3.66
2019-03-12T06:53:38.156Z,3.51
2019-03-12T06:56:12.978Z,3.50
2019-03-12T06:58:48.521Z,3.66
2019-03-12T07:01:21.445Z,3.68
2019-03-12T07:03:54.317Z,3.70
2019-03-12T07:06:29.596Z,3.89
2019-03-12T07:09:11.208Z,3.96
2019-03-12T07:11:59.256Z,4.06
2019-03-12T07:14:49.125Z,4.17
2019-03-12T07:17:27.707Z,4.15
2019-03-12T07:20:16.993Z,4.31
2019-03-12T07:23:07.786Z,4.45
2019-03-12T07:25:40.479Z,4.73
2019-03-12T07:28:29.831Z,4.70
2019-03-12T07:31:05.371Z,4.66
2019-03-12T07:33:40.677Z,4.79
2019-03-12T07:36:13.487Z,4.78
2019-03-12T07:39:02.699Z,4.57
2019-03-12T07:41:45.873Z,4.69
2019-03-12T07:44:18.592Z,4.72
2019-03-12T07:46:51.256Z,4.90
2019-03-12T07:49:32.740Z,4.90
2019-03-12T07:52:08.769Z,5.13
2019-03-12T07:54:50.262Z,4.97
2019-03-12T07:57:26.632Z,5.27
2019-03-12T08:00:15.720Z,5.29
2019-03-12T08:02:54.414Z,4.94
2019-03-12T08:05:33.276Z,5.16
2019-03-12T08:08:08.669Z,5.10
2019-03-12T08:10:47.674Z,5.01
2019-03-12T08:13:20.315Z,5.43
2019-03-12T08:15:52.928Z,5.22
2019-03-12T08:18:25.628Z,5.35
2019-03-12T08:20:58.359Z,5.44
2019-03-12T08:23:38.487Z,5.41
2019-03-12T08:26:17.081Z,5.16
2019-03-12T08:28:52.728Z,5.27
2019-03-12T08:31:41.970Z,5.66
2019-03-12T08:34:14.773Z,5.67
2019-03-12T08:37:03.853Z,5.76
2019-03-12T08:39:42.361Z,5.42
2019-03-12T08:42:17.824Z,5.90
2019-03-12T08:45:02.207Z,6.20
2019-03-12T08:47:53.281Z,6.26
2019-03-12T08:50:40.827Z,6.63
2019-03-12T08:53:17.046Z,5.95
2019-03-12T08:55:49.750Z,5.75
2019-03-12T08:58:22.761Z,5.76
2019-03-12T09:00:56.666Z,5.98
2019-03-12T09:03:45.427Z,5.58
2019-03-12T09:06:18.179Z,6.08
2019-03-12T09:09:00.170Z,6.64
2019-03-12T09:11:33.133Z,6.15
2019-03-12T09:14:21.767Z,6.74
2019-03-12T09:17:00.482Z,6.32
2019-03-12T09:19:49.238Z,6.24
2019-03-12T09:22:40.032Z,6.13
2019-03-12T09:25:21.456Z,6.20
2019-03-12T09:27:56.029Z,6.42
2019-03-12T09:30:34.407Z,6.75
2019-03-12T09:33:07.280Z,6.69
2019-03-12T09:35:45.396Z,6.56
2019-03-12T09:38:18.005Z,6.39
2019-03-12T09:40:53.258Z,5.77
2019-03-12T09:43:26.008Z,5.93
2019-03-12T09:46:01.324Z,6.00
2019-03-12T09:48:33.989Z,5.98
2019-03-12T09:51:12.798Z,5.84
2019-03-12T09:53:45.449Z,6.00
2019-03-12T09:56:36.833Z,6.13
2019-03-12T09:59:18.289Z,6.09
2019-03-12T10:02:00.152Z,6.37
2019-03-12T10:04:38.505Z,6.54
2019-03-12T10:07:19.980Z,6.73
2019-03-12T10:09:52.539Z,6.62
2019-03-12T10:12:25.231Z,6.62
2019-03-12T10:15:09.732Z,6.57
2019-03-12T10:17:58.699Z,6.60
2019-03-12T10:20:34.024Z,6.57
2019-03-12T10:23:15.747Z,6.57
2019-03-12T10:25:48.313Z,6.63
2019-03-12T10:28:23.632Z,6.56
2019-03-12T10:30:59.403Z,6.48
2019-03-12T10:33:34.595Z,6.58
2019-03-12T10:36:06.738Z,6.43
2019-03-12T10:39:31.845Z,6.50
2019-03-12T10:42:07.174Z,6.39
2019-03-12T10:44:51.943Z,6.41
2019-03-12T10:47:41.651Z,6.27
2019-03-12T10:50:18.115Z,5.91
2019-03-12T10:52:49.275Z,6.23
2019-03-12T10:55:20.243Z,6.23
2019-03-12T10:57:51.121Z,6.21
2019-03-12T11:00:22.498Z,5.82
2019-03-12T11:02:53.514Z,5.99
2019-03-12T11:05:24.508Z,6.23
2019-03-12T11:07:55.775Z,6.20
2019-03-12T11:10:26.895Z,6.23
2019-03-12T11:12:57.853Z,6.43
2019-03-12T11:15:30.010Z,6.41
2019-03-12T11:18:01.341Z,5.99
2019-03-12T11:20:32.361Z,6.05
2019-03-12T11:23:03.447Z,5.80
2019-03-12T11:25:34.971Z,6.08
2019-03-12T11:28:06.089Z,6.24
2019-03-12T11:30:37.176Z,6.27
2019-03-12T11:33:08.318Z,6.25
2019-03-12T11:35:39.844Z,6.34
2019-03-12T11:38:11.280Z,6.27
2019-03-12T11:40:42.474Z,6.40
2019-03-12T11:43:13.530Z,6.49
2019-03-12T11:45:44.795Z,6.58
2019-03-12T11:48:16.013Z,6.63
2019-03-12T11:50:47.084Z,6.63
2019-03-12T11:53:18.122Z,6.69
2019-03-12T11:55:49.141Z,6.67
2019-03-12T11:58:20.221Z,6.47
2019-03-12T12:00:52.806Z,6.54
2019-03-12T12:03:23.971Z,6.58
2019-03-12T12:05:56.026Z,6.68
2019-03-12T12:08:27.258Z,6.70
2019-03-12T12:11:09.044Z,6.73
2019-03-12T12:13:40.063Z,6.70
2019-03-12T12:16:11.010Z,6.70
2019-03-12T12:18:42.108Z,6.76
2019-03-12T12:21:13.155Z,6.76
2019-03-12T12:23:44.145Z,6.83
2019-03-12T12:26:15.156Z,6.90
2019-03-12T12:28:46.121Z,6.83
2019-03-12T12:31:17.355Z,6.84
2019-03-12T12:33:48.162Z,6.78
2019-03-12T12:36:19.139Z,6.90
2019-03-12T12:38:50.062Z,6.90
2019-03-12T12:41:21.170Z,6.92
2019-03-12T12:43:52.324Z,6.83
2019-03-12T12:46:23.348Z,6.93
2019-03-12T12:48:54.549Z,6.84
2019-03-12T12:51:25.647Z,6.96
2019-03-12T12:53:57.821Z,7.06
2019-03-12T12:56:28.844Z,6.74
2019-03-12T12:58:59.834Z,6.58
2019-03-12T13:01:30.795Z,6.84
2019-03-12T13:04:01.963Z,6.92
2019-03-12T13:06:34.201Z,7.02
2019-03-12T13:09:06.272Z,6.95
2019-03-12T13:11:38.878Z,6.91
2019-03-12T13:14:09.989Z,6.90
2019-03-12T13:16:40.934Z,7.06
2019-03-12T13:19:11.883Z,6.96
2019-03-12T13:21:43.064Z,6.76
2019-03-12T13:24:14.112Z,6.89
2019-03-12T13:26:46.103Z,6.84
2019-03-12T13:29:17.117Z,6.84
2019-03-12T13:31:49.357Z,6.76
2019-03-12T13:34:20.295Z,6.82
2019-03-12T13:36:56.118Z,6.87
2019-03-12T13:39:27.585Z,6.78
2019-03-12T13:41:58.792Z,6.77
2019-03-12T13:44:29.974Z,6.74
2019-03-12T13:47:00.986Z,6.90
2019-03-12T13:49:32.086Z,6.74
2019-03-12T13:52:03.280Z,6.74
2019-03-12T13:54:34.394Z,6.79
2019-03-12T13:57:05.546Z,6.78
2019-03-12T13:59:36.603Z,6.89
2019-03-12T14:02:07.680Z,6.83
2019-03-12T14:04:38.787Z,6.79
2019-03-12T14:07:09.920Z,6.62
2019-03-12T14:09:40.826Z,6.61
2019-03-12T14:12:11.883Z,6.66
2019-03-12T14:14:42.958Z,6.48
2019-03-12T14:17:14.097Z,6.38
2019-03-12T14:19:45.075Z,6.17
2019-03-12T14:22:16.160Z,6.32
2019-03-12T14:24:47.309Z,6.28
2019-03-12T14:27:19.358Z,6.32
2019-03-12T14:29:50.339Z,6.34
2019-03-12T14:32:21.468Z,6.42
2019-03-12T14:34:52.326Z,6.33
2019-03-12T14:37:23.878Z,6.37
2019-03-12T14:39:55.175Z,6.33
2019-03-12T14:42:26.254Z,6.38
2019-03-12T14:44:57.265Z,6.38
2019-03-12T14:47:28.509Z,6.34
2019-03-12T14:49:59.812Z,6.33
2019-03-12T14:52:30.936Z,6.28
2019-03-12T14:55:01.821Z,6.19
2019-03-12T14:57:32.976Z,6.08
2019-03-12T15:00:07.793Z,6.12
2019-03-12T15:02:38.988Z,6.08
2019-03-12T15:05:10.167Z,6.13
2019-03-12T15:07:41.273Z,6.19
2019-03-12T15:10:12.469Z,6.21
2019-03-12T15:12:43.799Z,6.22
2019-03-12T15:15:15.136Z,6.23
2019-03-12T15:17:46.234Z,6.23
2019-03-12T15:20:17.246Z,6.22
2019-03-12T15:22:48.475Z,6.15
2019-03-12T15:25:19.498Z,6.13
2019-03-12T15:27:50.695Z,6.13
2019-03-12T15:30:27.275Z,6.06
2019-03-12T15:32:58.208Z,6.05
2019-03-12T15:35:29.297Z,6.04
2019-03-12T15:38:00.621Z,5.93
2019-03-12T15:40:31.582Z,5.96
2019-03-12T15:43:02.647Z,6.07
2019-03-12T15:45:33.664Z,5.91
2019-03-12T15:48:04.630Z,5.91
2019-03-12T15:50:35.707Z,5.83
2019-03-12T15:53:07.360Z,5.95
2019-03-12T15:55:38.414Z,5.97
2019-03-12T15:58:09.560Z,5.87
2019-03-12T16:00:40.621Z,5.85
2019-03-12T16:03:11.659Z,5.88
2019-03-12T16:05:42.795Z,5.91
2019-03-12T16:08:13.839Z,5.88
2019-03-12T16:10:57.150Z,5.87
2019-03-12T16:13:17.665Z,5.78
2019-03-12T16:15:48.894Z,5.78
2019-03-12T16:18:20.028Z,5.78
2019-03-12T16:20:51.350Z,5.75
2019-03-12T16:23:22.661Z,5.73
2019-03-12T16:25:53.959Z,5.73
2019-03-12T16:28:25.281Z,5.72
2019-03-12T16:30:57.607Z,5.70
2019-03-12T16:33:28.955Z,5.65
2019-03-12T16:36:00.227Z,5.66
2019-03-12T16:38:31.644Z,5.58
2019-03-12T16:41:03.101Z,5.60
2019-03-12T16:43:34.489Z,5.56
2019-03-12T16:46:05.794Z,5.58
2019-03-12T16:48:38.566Z,5.51
2019-03-12T16:51:09.943Z,5.48
2019-03-12T16:53:41.011Z,5.45
2019-03-12T16:56:12.049Z,5.46
2019-03-12T16:58:43.186Z,5.50
2019-03-12T17:01:15.523Z,5.45
2019-03-12T17:03:46.862Z,5.39
2019-03-12T17:06:18.184Z,5.39
2019-03-12T17:08:50.018Z,5.36
2019-03-12T17:11:21.331Z,5.40
2019-03-12T17:13:52.758Z,5.39
2019-03-12T17:16:24.190Z,5.30
2019-03-12T17:18:55.669Z,5.23
2019-03-12T17:21:27.020Z,5.29
2019-03-12T17:23:58.467Z,5.31
2019-03-12T17:26:30.596Z,5.27
2019-03-12T17:29:02.278Z,5.20
2019-03-12T17:31:33.685Z,5.33
2019-03-12T17:34:05.379Z,5.31
2019-03-12T17:36:36.948Z,5.26
2019-03-12T17:39:10.036Z,5.26
2019-03-12T17:41:43.028Z,5.20
2019-03-12T17:44:14.571Z,5.21
2019-03-12T17:46:45.874Z,5.16
2019-03-12T17:49:19.278Z,5.18
2019-03-12T17:51:50.571Z,5.19
2019-03-12T17:54:22.063Z,5.23
2019-03-12T17:56:53.750Z,5.24
2019-03-12T17:59:28.499Z,5.15
2019-03-12T18:02:00.165Z,5.10
2019-03-12T18:04:32.717Z,5.13
2019-03-12T18:07:05.662Z,5.08
2019-03-12T18:09:51.312Z,5.07
2019-03-12T18:12:41.545Z,5.04
2019-03-12T18:15:19.235Z,4.94
2019-03-12T18:17:50.752Z,4.97
2019-03-12T18:20:23.034Z,4.90
2019-03-12T18:22:55.364Z,4.90
2019-03-12T18:25:29.132Z,4.78
2019-03-12T18:28:00.759Z,4.82
2019-03-12T18:30:32.092Z,4.75
2019-03-12T18:33:03.491Z,4.60
2019-03-12T18:35:34.971Z,4.58
2019-03-12T18:38:06.420Z,4.72
2019-03-12T18:40:37.877Z,4.59
2019-03-12T18:43:09.197Z,4.50
2019-03-12T18:45:40.567Z,4.42
2019-03-12T18:48:12.229Z,4.41
2019-03-12T18:50:43.753Z,4.34
2019-03-12T18:53:17.938Z,4.19
2019-03-12T18:55:52.433Z,4.12
2019-03-12T18:58:23.758Z,4.14
2019-03-12T19:00:58.126Z,4.12
2019-03-12T19:03:29.482Z,4.09
2019-03-12T19:06:00.884Z,4.06
2019-03-12T19:08:32.258Z,4.01
2019-03-12T19:11:03.779Z,3.98
2019-03-12T19:13:35.480Z,3.90
2019-03-12T19:16:07.130Z,3.73
2019-03-12T19:18:40.423Z,3.74
2019-03-12T19:21:13.025Z,3.69
2019-03-12T19:23:44.440Z,3.67
2019-03-12T19:26:15.883Z,3.61
2019-03-12T19:28:47.251Z,3.54
2019-03-12T19:31:23.207Z,3.63
2019-03-12T19:33:55.373Z,3.58
2019-03-12T19:36:26.955Z,3.56
2019-03-12T19:38:58.642Z,3.51
2019-03-12T19:41:30.330Z,3.36
2019-03-12T19:44:02.637Z,3.34
2019-03-12T19:46:34.292Z,3.27
2019-03-12T19:49:05.905Z,3.14
2019-03-12T19:51:37.322Z,3.15
2019-03-12T19:54:08.763Z,3.25
2019-03-12T19:56:40.258Z,3.32
2019-03-12T19:59:12.938Z,3.33
2019-03-12T20:01:44.829Z,3.21
2019-03-12T20:04:16.190Z,3.17
2019-03-12T20:06:47.815Z,3.12
2019-03-12T20:09:22.357Z,2.95
2019-03-12T20:12:11.690Z,3.02
2019-03-12T20:14:58.196Z,3.04
2019-03-12T20:18:09.096Z,2.94
2019-03-12T20:21:10.879Z,2.99
2019-03-12T20:24:19.040Z,3.01
2019-03-12T20:27:10.156Z,2.98
2019-03-12T20:29:47.943Z,2.95
2019-03-12T20:32:55.817Z,2.99
2019-03-12T20:35:56.048Z,2.86
2019-03-12T20:39:05.285Z,2.94
2019-03-12T20:41:56.814Z,3.06
2019-03-12T20:44:52.887Z,2.96
2019-03-12T20:47:53.640Z,2.97
2019-03-12T20:50:48.024Z,3.02
2019-03-12T20:53:31.251Z,2.98
2019-03-12T20:56:37.512Z,2.97
2019-03-12T20:59:45.528Z,2.93
2019-03-12T21:02:34.815Z,2.96
2019-03-12T21:05:25.467Z,2.87
2019-03-12T21:08:21.546Z,2.85
2019-03-12T21:11:26.508Z,2.70
2019-03-12T21:14:35.993Z,2.70
2019-03-12T21:17:26.547Z,2.52
2019-03-12T21:20:24.990Z,2.63
2019-03-12T21:23:02.106Z,2.69
2019-03-12T21:25:39.520Z,2.86
2019-03-12T21:28:38.189Z,2.92
2019-03-12T21:31:10.470Z,2.93
2019-03-12T21:33:43.861Z,3.06
2019-03-12T21:36:15.181Z,3.13
2019-03-12T21:38:46.456Z,3.21
2019-03-12T21:41:17.536Z,3.13
2019-03-12T21:43:48.770Z,3.19
2019-03-12T21:46:19.991Z,3.19
2019-03-12T21:48:51.496Z,3.10
2019-03-12T21:51:22.696Z,3.13
2019-03-12T21:53:53.753Z,3.05
2019-03-12T21:56:24.950Z,3.00
2019-03-12T21:58:56.065Z,2.98
2019-03-12T22:01:27.546Z,2.92
2019-03-12T22:04:02.886Z,2.92
2019-03-12T22:06:34.040Z,2.81
2019-03-12T22:09:05.601Z,2.87
2019-03-12T22:11:38.466Z,2.87
2019-03-12T22:14:09.999Z,2.88
2019-03-12T22:16:43.857Z,2.86
2019-03-12T22:19:16.075Z,2.77
2019-03-12T22:21:51.571Z,2.84
2019-03-12T22:24:22.789Z,2.77
2019-03-12T22:26:53.965Z,2.95
2019-03-12T22:29:25.070Z,3.05
2019-03-12T22:31:56.172Z,3.22
2019-03-12T22:34:30.029Z,3.25
2019-03-12T22:37:00.135Z,3.34
2019-03-12T22:39:31.356Z,3.32
2019-03-12T22:42:02.559Z,3.30
2019-03-12T22:44:33.663Z,3.27
2019-03-12T22:47:04.689Z,3.25
2019-03-12T22:49:35.737Z,3.25
2019-03-12T22:52:06.877Z,3.28
2019-03-12T22:54:37.976Z,3.28
2019-03-12T22:57:09.105Z,3.14
2019-03-12T22:59:58.181Z,3.18
2019-03-12T23:02:49.632Z,3.14
2019-03-12T23:05:38.735Z,3.18
2019-03-12T23:08:28.045Z,3.06
2019-03-12T23:11:00.765Z,3.08
2019-03-12T23:13:32.279Z,2.98
2019-03-12T23:16:04.233Z,2.91
2019-03-12T23:18:35.625Z,2.85
2019-03-12T23:21:07.000Z,2.83
2019-03-12T23:23:38.719Z,2.68
2019-03-12T23:26:10.072Z,2.65
2019-03-12T23:28:41.208Z,2.51
2019-03-12T23:31:12.360Z,2.49
2019-03-12T23:33:43.759Z,2.42
2019-03-12T23:36:14.838Z,2.27
2019-03-12T23:38:46.054Z,2.27
2019-03-12T23:41:17.238Z,2.33
2019-03-12T23:43:48.426Z,2.36
2019-03-12T23:46:19.539Z,2.28
2019-03-12T23:48:50.722Z,2.28
2019-03-12T23:51:21.816Z,2.27
2019-03-12T23:53:53.099Z,2.24
2019-03-12T23:56:24.316Z,2.19
2019-03-12T23:58:55.405Z,2.15
